Time;durP1;ratioP1;P1;durP2;ratioP2;P2;SDS_P1;SDS_P2;PMS_P1;PMS_P2;Temp;Humidity;BMP_temperature;BMP_pressure;BME280_temperature;BME280_humidity;BME280_pressure;Samples;Min_cycle;Max_cycle;Signal;HPM_P1;HPM_P2
2022/07/07 07:17:28;;;;;;;1.75;1.40;;;;;;;17.84;100.00;99410.99;1789111;78;24441;-69
2022/07/07 07:19:55;;;;;;;4.50;2.52;;;;;;;17.84;100.00;99410.99;1767495;79;20887;-68
2022/07/07 07:22:23;;;;;;;2.67;2.45;;;;;;;17.78;100.00;99417.59;1763202;80;21665;-64
2022/07/07 07:24:50;;;;;;;3.05;2.42;;;;;;;17.72;100.00;99415.55;1757712;79;21038;-67
2022/07/07 07:27:17;;;;;;;2.97;2.10;;;;;;;18.17;100.00;99414.30;1748785;80;21015;-64
2022/07/07 07:29:44;;;;;;;4.22;1.85;;;;;;;19.15;100.00;99419.47;1749902;80;21418;-65
2022/07/07 07:32:11;;;;;;;3.40;2.10;;;;;;;19.56;100.00;99415.61;1775252;80;21382;-67
2022/07/07 07:34:38;;;;;;;1.67;1.50;;;;;;;19.88;100.00;99421.78;1756609;80;21805;-66
2022/07/07 07:37:07;;;;;;;1.87;1.60;;;;;;;19.90;100.00;99424.43;1763856;80;21398;-66
2022/07/07 07:39:34;;;;;;;1.63;1.53;;;;;;;20.22;100.00;99422.36;1764564;79;21134;-73
2022/07/07 07:42:01;;;;;;;1.50;1.40;;;;;;;20.63;100.00;99429.25;1751152;79;21010;-63
2022/07/07 07:47:14;;;;;;;3.22;1.60;;;;;;;20.46;100.00;99438.23;1765951;79;21265;-67
2022/07/07 07:49:41;;;;;;;3.77;1.65;;;;;;;20.86;100.00;99442.67;1769095;80;21041;-66
2022/07/07 07:52:07;;;;;;;2.60;1.57;;;;;;;20.84;100.00;99450.38;1727961;80;21495;-61
2022/07/07 07:54:34;;;;;;;1.98;1.35;;;;;;;20.46;100.00;99451.06;1767231;80;20962;-64
2022/07/07 07:57:02;;;;;;;2.52;1.42;;;;;;;20.38;100.00;99444.47;1758079;80;21480;-65
2022/07/07 07:59:30;;;;;;;2.27;1.37;;;;;;;20.22;100.00;99455.62;1761458;80;21142;-69
2022/07/07 08:01:57;;;;;;;1.85;1.35;;;;;;;20.15;100.00;99453.38;1762650;80;21005;-67
2022/07/07 08:04:23;;;;;;;2.00;1.52;;;;;;;20.23;100.00;99453.93;1727019;81;20931;-64
2022/07/07 08:06:50;;;;;;;3.95;1.82;;;;;;;20.09;100.00;99449.22;1744505;80;20907;-68
2022/07/07 08:09:18;;;;;;;1.40;1.30;;;;;;;20.24;100.00;99447.38;1747683;80;20872;-66
2022/07/07 08:11:45;;;;;;;1.98;1.70;;;;;;;20.49;100.00;99444.39;1759060;80;21253;-66
2022/07/07 08:14:12;;;;;;;3.95;1.60;;;;;;;20.78;100.00;99449.76;1749835;80;20924;-66
2022/07/07 08:16:40;;;;;;;2.45;1.65;;;;;;;20.98;100.00;99446.33;1768814;80;21034;-64
2022/07/07 08:19:06;;;;;;;2.85;1.50;;;;;;;21.20;100.00;99448.59;1751152;79;21091;-66
2022/07/07 08:21:33;;;;;;;1.67;1.30;;;;;;;21.66;100.00;99444.23;1754915;80;21026;-67
2022/07/07 08:24:00;;;;;;;3.47;1.40;;;;;;;22.34;100.00;99449.56;1766820;80;21154;-67
2022/07/07 08:26:27;;;;;;;1.30;1.20;;;;;;;22.52;100.00;99451.57;1787942;79;20870;-65
2022/07/07 08:28:54;;;;;;;1.57;1.30;;;;;;;22.32;100.00;99447.73;1781139;79;20973;-68
2022/07/07 08:31:20;;;;;;;2.20;1.37;;;;;;;22.26;97.46;99449.84;1770168;79;21714;-66
2022/07/07 08:33:47;;;;;;;1.95;1.37;;;;;;;21.36;100.00;99444.19;1771129;79;21378;-64
2022/07/07 08:36:14;;;;;;;4.30;2.00;;;;;;;20.89;100.00;99438.72;1761267;80;21262;-65
2022/07/07 08:38:40;;;;;;;2.57;1.80;;;;;;;20.71;100.00;99442.06;1764648;80;20846;-68
2022/07/07 08:41:08;;;;;;;6.40;1.92;;;;;;;20.86;100.00;99442.67;1782630;79;21396;-65
2022/07/07 08:43:35;;;;;;;2.65;2.08;;;;;;;20.86;100.00;99442.67;1782493;79;21479;-66
2022/07/07 08:46:01;;;;;;;5.50;3.05;;;;;;;20.94;100.00;99441.84;1757452;79;20908;-66
2022/07/07 08:48:28;;;;;;;4.55;2.45;;;;;;;20.97;100.00;99438.48;1770627;79;21309;-66
2022/07/07 08:50:55;;;;;;;3.00;2.08;;;;;;;20.83;100.00;99440.61;1782482;79;20989;-67
2022/07/07 08:53:22;;;;;;;5.90;2.70;;;;;;;20.59;100.00;99453.40;1784314;79;20974;-67
2022/07/07 08:55:48;;;;;;;1.80;1.62;;;;;;;20.46;100.00;99449.12;1760308;79;21440;-67
2022/07/07 08:58:16;;;;;;;3.55;1.80;;;;;;;20.52;100.00;99457.94;1780777;79;20888;-65
2022/07/07 09:00:43;;;;;;;2.05;1.87;;;;;;;20.77;100.00;99463.14;1778221;79;21174;-68
2022/07/07 09:03:10;;;;;;;3.75;1.80;;;;;;;21.11;100.00;99473.16;1775795;79;21586;-64
2022/07/07 09:05:42;;;;;;;2.02;1.80;;;;;;;21.29;100.00;99477.20;1772979;79;20983;-65
2022/07/07 09:08:21;;;;;;;3.20;1.20;;;;;;;21.46;100.00;99477.72;1751358;80;21583;-67
2022/07/07 09:10:48;;;;;;;2.75;1.50;;;;;;;21.50;100.00;99477.31;1770393;79;21194;-66
2022/07/07 09:13:30;;;;;;;1.77;1.22;;;;;;;21.68;97.77;99477.48;1774068;79;21262;-67
2022/07/07 09:16:16;;;;;;;5.47;1.75;;;;;;;21.90;94.16;99480.48;1754681;79;21585;-68
2022/07/07 09:18:47;;;;;;;3.12;1.30;;;;;;;22.08;93.03;99484.47;1768764;79;21105;-68
2022/07/07 09:21:33;;;;;;;2.00;1.02;;;;;;;22.05;84.83;99482.63;1776784;79;20896;-67
2022/07/07 09:24:02;;;;;;;2.20;1.27;;;;;;;21.98;89.80;99483.72;1752120;79;20994;-62
2022/07/07 09:26:41;;;;;;;3.50;1.72;;;;;;;22.16;77.13;99472.66;1761411;79;21941;-68
2022/07/07 09:29:13;;;;;;;3.27;1.40;;;;;;;22.03;79.96;99490.35;1765469;79;20904;-65
2022/07/07 09:32:01;;;;;;;3.10;1.57;;;;;;;21.94;82.21;99486.87;1769290;79;21020;-66
2022/07/07 09:34:34;;;;;;;1.10;1.00;;;;;;;22.11;76.01;99472.86;1761525;79;21072;-65
2022/07/07 09:39:47;;;;;;;1.65;1.40;;;;;;;22.19;88.01;99490.55;1713671;80;21317;-64
2022/07/07 09:42:20;;;;;;;1.30;1.20;;;;;;;22.20;81.69;99488.09;1713733;83;21044;-70
2022/07/07 09:44:58;;;;;;;3.42;1.17;;;;;;;22.33;78.41;99498.53;1780523;79;21022;-69
2022/07/07 09:47:24;;;;;;;4.97;1.47;;;;;;;22.11;90.37;99492.00;1761182;79;20900;-67
2022/07/07 09:50:10;;;;;;;2.53;1.00;;;;;;;22.09;83.91;99490.16;1762910;79;20923;-65
2022/07/07 09:52:40;;;;;;;2.65;1.20;;;;;;;22.07;72.51;99491.05;1778105;79;21890;-66
2022/07/07 09:55:09;;;;;;;2.12;1.35;;;;;;;21.96;80.69;99497.48;1774311;79;21088;-69
2022/07/07 09:57:39;;;;;;;1.45;1.17;;;;;;;21.84;78.18;99501.71;1778631;79;20862;-70
2022/07/07 10:00:07;;;;;;;2.00;1.20;;;;;;;21.65;79.00;99501.90;1760784;80;20914;-67
2022/07/07 10:02:42;;;;;;;4.17;1.40;;;;;;;21.73;79.46;99501.05;1784918;79;21438;-71
2022/07/07 10:05:09;;;;;;;;;;;;;;;21.45;83.65;99496.61;1756984;80;21472;-68
2022/07/07 10:07:37;;;;;;;1.52;1.20;;;;;;;21.37;84.36;99503.69;1752092;80;20214;-68
2022/07/07 10:10:08;;;;;;;1.70;1.10;;;;;;;21.27;85.21;99506.20;1744717;79;20911;-67
2022/07/07 10:12:40;;;;;;;1.12;1.02;;;;;;;21.07;86.37;99506.88;1749852;80;20980;-71
2022/07/07 10:15:11;;;;;;;1.95;1.27;;;;;;;20.81;79.58;99508.31;1772629;80;21507;-65
2022/07/07 10:17:40;;;;;;;2.02;1.20;;;;;;;20.67;91.27;99505.18;1736005;80;20977;-64
2022/07/07 10:20:09;;;;;;;2.05;1.30;;;;;;;20.58;95.22;99508.50;1756356;79;21089;-65
2022/07/07 10:22:36;;;;;;;2.37;1.40;;;;;;;20.58;95.88;99508.50;1760988;80;20863;-68
2022/07/07 10:25:07;;;;;;;2.27;1.50;;;;;;;20.48;87.38;99500.59;1755871;80;21506;-67
2022/07/07 10:27:34;;;;;;;1.70;1.30;;;;;;;20.38;94.03;99503.64;1760790;80;20987;-67
2022/07/07 10:30:06;;;;;;;4.28;1.30;;;;;;;20.41;100.00;99500.30;1764427;80;21261;-68
2022/07/07 10:32:51;;;;;;;1.50;1.40;;;;;;;20.48;100.00;99503.31;1761084;80;21796;-65
2022/07/07 10:35:18;;;;;;;2.50;1.82;;;;;;;20.45;100.00;99506.69;1776673;80;20977;-66
2022/07/07 10:37:48;;;;;;;2.45;1.90;;;;;;;20.42;100.00;99500.52;1769933;80;20930;-67
2022/07/07 10:40:24;;;;;;;1.60;1.50;;;;;;;20.43;100.00;99500.22;1704365;82;21566;-67
2022/07/07 10:43:32;;;;;;;3.47;2.02;;;;;;;20.53;100.00;99512.72;1772582;79;21243;-67
2022/07/07 10:46:01;;;;;;;3.33;1.80;;;;;;;20.69;100.00;99504.30;1788688;79;21487;-66
2022/07/07 10:48:49;;;;;;;1.95;1.60;;;;;;;20.67;100.00;99507.11;1784594;79;21025;-66
2022/07/07 10:51:25;;;;;;;1.82;1.20;;;;;;;20.74;100.00;99500.61;1769706;79;20948;-66
2022/07/07 10:54:06;;;;;;;1.87;1.15;;;;;;;20.82;92.50;99505.81;1787897;79;20889;-66
2022/07/07 10:56:59;;;;;;;2.85;1.25;;;;;;;20.99;96.55;99504.41;1761875;80;21421;-66
2022/07/07 10:59:26;;;;;;;6.30;2.67;;;;;;;21.09;89.87;99511.45;1777110;79;21733;-64
2022/07/07 11:02:04;;;;;;;5.42;2.35;;;;;;;21.00;82.74;99505.24;1760032;79;21566;-65
2022/07/07 11:04:51;;;;;;;2.40;1.70;;;;;;;21.10;83.27;99511.71;1764986;79;21563;-67
2022/07/07 11:07:19;;;;;;;2.75;1.70;;;;;;;21.15;88.82;99511.54;1758246;79;21005;-67
2022/07/07 11:10:00;;;;;;;3.45;1.90;;;;;;;21.34;92.16;99509.80;1762436;80;21280;-67
2022/07/07 11:12:45;;;;;;;2.17;1.67;;;;;;;21.55;84.07;99516.16;1744048;80;20915;-64
2022/07/07 11:15:25;;;;;;;2.60;1.47;;;;;;;21.68;86.35;99512.98;1747169;80;21568;-66
2022/07/07 11:18:00;;;;;;;4.03;1.45;;;;;;;21.70;85.64;99517.53;1750541;80;20879;-67
2022/07/07 11:20:30;;;;;;;3.72;1.42;;;;;;;21.92;80.76;99522.48;1708666;83;20936;-67
2022/07/07 11:23:10;;;;;;;2.08;1.20;;;;;;;22.13;78.11;99520.59;1708753;82;21166;-65
2022/07/07 11:25:40;;;;;;;3.17;1.27;;;;;;;22.42;74.28;99517.05;1712420;82;21038;-66
2022/07/07 11:28:09;;;;;;;3.30;1.50;;;;;;;22.54;67.20;99526.43;1705195;82;20952;-66
2022/07/07 11:30:39;;;;;;;1.40;1.20;;;;;;;22.53;76.30;99524.27;1715127;82;21174;-67
2022/07/07 11:33:05;;;;;;;1.17;1.07;;;;;;;22.87;68.46;99528.63;1722613;82;21070;-65
2022/07/07 11:35:40;;;;;;;3.05;1.10;;;;;;;22.95;71.97;99530.25;1718121;82;21163;-67
2022/07/07 11:38:11;;;;;;;1.20;1.05;;;;;;;22.95;61.96;99535.73;1702687;83;21103;-65
2022/07/07 11:40:40;;;;;;;2.65;1.15;;;;;;;22.71;79.52;99522.20;1724359;82;21007;-64
2022/07/07 11:43:08;;;;;;;1.42;1.32;;;;;;;22.27;63.90;99524.48;1709012;82;21040;-65
2022/07/07 11:45:35;;;;;;;;;;;;;;;22.26;72.30;99520.92;1699313;82;21143;-70
2022/07/07 11:48:03;;;;;;;5.58;1.40;;;;;;;22.09;62.80;99519.65;1712962;82;21183;-66
2022/07/07 11:50:31;;;;;;;6.80;2.17;;;;;;;22.04;68.12;99517.91;1726177;81;20900;-66
2022/07/07 11:53:00;;;;;;;4.28;2.55;;;;;;;21.92;68.12;99523.28;1729118;82;21482;-66
2022/07/07 11:55:27;;;;;;;3.40;1.90;;;;;;;21.92;73.64;99517.81;1712010;82;21135;-66
2022/07/07 11:58:03;;;;;;;3.58;1.30;;;;;;;21.94;75.57;99522.96;1707765;82;21033;-67
2022/07/07 12:00:35;;;;;;;4.85;1.67;;;;;;;21.53;71.79;99515.67;1754200;79;21247;-68
2022/07/07 12:03:05;;;;;;;1.80;1.42;;;;;;;21.47;73.52;99507.44;1765831;79;20890;-63
2022/07/07 12:05:38;;;;;;;1.52;1.27;;;;;;;21.50;75.74;99505.41;1779768;79;21140;-66
2022/07/07 12:08:08;;;;;;;6.83;1.60;;;;;;;21.49;76.47;99510.66;1773730;79;20963;-65
2022/07/07 12:10:38;;;;;;;10.25;1.45;;;;;;;21.66;81.61;99509.78;1752196;79;21080;-66
2022/07/07 12:13:09;;;;;;;2.92;1.50;;;;;;;21.77;77.47;99517.02;1769776;79;21254;-64
2022/07/07 12:15:46;;;;;;;1.25;1.02;;;;;;;21.81;72.98;99517.98;1765489;79;20999;-67
2022/07/07 12:18:31;;;;;;;1.47;1.20;;;;;;;21.92;73.15;99521.13;1753775;79;21507;-65
2022/07/07 12:21:01;;;;;;;1.75;1.25;;;;;;;22.03;71.33;99516.89;1778517;79;21103;-68
2022/07/07 12:23:28;;;;;;;2.50;1.80;;;;;;;21.89;69.75;99519.05;1777616;79;20940;-64
2022/07/07 12:26:20;;;;;;;4.17;2.22;;;;;;;21.77;72.80;99515.09;1772607;79;21261;-66
2022/07/07 12:28:48;;;;;;;7.65;3.47;;;;;;;21.86;78.79;99504.70;1781132;79;20922;-66
2022/07/07 12:31:21;;;;;;;3.00;1.60;;;;;;;21.99;76.93;99503.07;1769532;79;20999;-65
2022/07/07 12:33:48;;;;;;;2.40;1.72;;;;;;;21.99;77.06;99501.70;1777191;79;21087;-68
2022/07/07 12:36:18;;;;;;;3.02;1.32;;;;;;;21.91;74.80;99506.66;1765878;79;20911;-68
2022/07/07 12:38:47;;;;;;;1.70;1.15;;;;;;;21.98;73.91;99497.95;1768255;80;21892;-66
2022/07/07 12:41:29;;;;;;;3.20;1.17;;;;;;;22.03;75.69;99486.83;1777360;80;20847;-65
2022/07/07 12:44:22;;;;;;;5.25;1.60;;;;;;;22.09;77.08;99488.22;1758603;80;20856;-67
2022/07/07 12:46:50;;;;;;;1.55;1.15;;;;;;;22.19;77.78;99482.92;1754347;80;20897;-67
2022/07/07 12:49:17;;;;;;;1.70;1.00;;;;;;;22.17;80.86;99481.08;1734306;80;20871;-66
2022/07/07 12:51:49;;;;;;;2.55;1.37;;;;;;;22.28;76.45;99486.43;1761713;80;21894;-66
2022/07/07 12:54:30;;;;;;;1.47;1.22;;;;;;;22.38;74.36;99485.23;1750262;80;20990;-64
2022/07/07 12:57:04;;;;;;;1.20;1.10;;;;;;;22.47;70.02;99487.33;1765894;80;20918;-66
2022/07/07 12:59:46;;;;;;;2.87;1.30;;;;;;;22.51;65.55;99492.92;1753520;80;20994;-65
2022/07/07 13:02:14;;;;;;;2.87;1.30;;;;;;;22.65;68.68;99487.97;1751156;80;21423;-66
2022/07/07 13:04:42;;;;;;;2.37;1.07;;;;;;;22.77;67.83;99492.11;1743228;81;21291;-68
2022/07/07 13:07:10;;;;;;;2.17;1.20;;;;;;;22.85;66.26;99491.22;1738481;80;21547;-66
2022/07/07 13:09:37;;;;;;;1.67;1.12;;;;;;;22.88;60.47;99502.06;1773375;80;21013;-68
2022/07/07 13:12:07;;;;;;;3.05;1.30;;;;;;;22.71;61.13;99503.59;1763134;80;20890;-67
2022/07/07 13:14:34;;;;;;;2.20;1.20;;;;;;;22.67;64.15;99500.17;1776126;80;20966;-67
2022/07/07 13:17:01;;;;;;;3.27;1.40;;;;;;;22.52;62.49;99494.53;1769529;80;21990;-67
2022/07/07 13:19:28;;;;;;;1.45;1.25;;;;;;;22.45;59.74;99499.17;1721327;81;21175;-67
2022/07/07 13:21:55;;;;;;;3.22;1.47;;;;;;;22.68;63.57;99500.97;1760756;80;20859;-67
2022/07/07 13:24:22;;;;;;;3.77;1.60;;;;;;;23.00;62.08;99502.70;1748488;80;20979;-67
2022/07/07 13:26:48;;;;;;;2.27;1.42;;;;;;;23.22;62.27;99501.50;1756053;80;21480;-68
2022/07/07 13:29:17;;;;;;;3.60;1.40;;;;;;;23.34;57.88;99501.52;1764524;81;21156;-68
2022/07/07 13:31:48;;;;;;;2.37;1.60;;;;;;;23.42;60.62;99487.48;1766061;80;21548;-65
2022/07/07 13:34:16;;;;;;;5.75;1.90;;;;;;;23.18;60.31;99484.97;1769957;80;20879;-68
2022/07/07 13:36:43;;;;;;;3.92;1.80;;;;;;;23.08;61.66;99483.47;1771032;80;20891;-67
2022/07/07 13:39:10;;;;;;;2.67;1.75;;;;;;;23.10;64.66;99477.63;1757901;80;21002;-68
2022/07/07 13:41:38;;;;;;;2.85;1.85;;;;;;;23.15;61.65;99475.25;1761376;80;21159;-66
2022/07/07 13:44:04;;;;;;;2.40;1.98;;;;;;;23.00;63.78;99474.75;1766899;81;21413;-67
2022/07/07 13:46:31;;;;;;;4.25;1.95;;;;;;;22.85;65.43;99470.70;1750171;80;20968;-67
2022/07/07 13:48:58;;;;;;;3.55;1.50;;;;;;;22.70;61.11;99471.34;1744525;80;21007;-67
2022/07/07 13:51:25;;;;;;;3.35;2.98;;;;;;;22.52;65.58;99467.98;1770809;81;20906;-68
2022/07/07 13:53:52;;;;;;;1.52;1.42;;;;;;;22.36;66.80;99467.78;1751373;80;22167;-70
2022/07/07 13:56:19;;;;;;;2.77;1.50;;;;;;;22.13;63.35;99461.83;1755371;80;20979;-69
2022/07/07 13:58:46;;;;;;;3.98;1.50;;;;;;;21.93;65.50;99459.33;1763983;81;21589;-67
2022/07/07 14:01:12;;;;;;;5.93;1.90;;;;;;;21.69;65.06;99453.69;1754469;80;20893;-67
2022/07/07 14:03:39;;;;;;;5.07;1.83;;;;;;;21.59;65.92;99456.23;1758770;80;21527;-67
2022/07/07 14:06:07;;;;;;;4.40;3.20;;;;;;;21.61;73.01;99455.34;1757915;81;21154;-70
2022/07/07 14:08:34;;;;;;;9.23;5.10;;;;;;;21.57;70.91;99461.22;1754175;80;20869;-67
2022/07/07 14:11:01;;;;;;;9.13;4.80;;;;;;;21.50;70.85;99460.93;1754826;80;21519;-67
2022/07/07 14:13:28;;;;;;;6.85;4.53;;;;;;;21.43;75.38;99454.61;1762420;80;20962;-68
2022/07/07 14:15:55;;;;;;;4.33;2.62;;;;;;;21.44;77.72;99454.86;1751641;80;20912;-69
2022/07/07 14:18:23;;;;;;;5.25;2.70;;;;;;;21.42;79.64;99451.66;1764646;80;20979;-67
2022/07/07 14:20:50;;;;;;;3.55;2.90;;;;;;;21.35;77.31;99454.06;1766405;80;20962;-67
2022/07/07 14:23:17;;;;;;;8.15;3.72;;;;;;;21.25;78.89;99450.34;1750971;80;20991;-66
2022/07/07 14:25:44;;;;;;;5.03;3.70;;;;;;;21.14;79.33;99445.25;1766605;80;20989;-68
2022/07/07 14:28:11;;;;;;;4.08;3.12;;;;;;;21.02;80.40;99443.77;1734047;80;20954;-68
2022/07/07 14:30:38;;;;;;;5.67;3.10;;;;;;;20.88;81.08;99429.52;1746022;80;21254;-68
2022/07/07 14:33:06;;;;;;;9.35;3.67;;;;;;;20.76;83.83;99414.62;1771402;80;20922;-69
2022/07/07 14:35:33;;;;;;;5.00;3.20;;;;;;;20.65;85.85;99396.19;1770014;81;20934;-67
2022/07/07 14:38:00;;;;;;;5.40;2.50;;;;;;;20.57;90.04;99391.56;1761800;80;20931;-68
2022/07/07 14:40:28;;;;;;;3.65;1.80;;;;;;;20.53;93.11;99403.09;1771356;80;20918;-67
2022/07/07 14:42:57;;;;;;;4.12;2.25;;;;;;;20.53;94.60;99438.54;1755633;80;21780;-68
2022/07/07 14:45:23;;;;;;;5.10;2.07;;;;;;;20.48;96.69;99455.61;1752144;80;20967;-66
2022/07/07 14:47:50;;;;;;;4.08;2.00;;;;;;;20.48;92.35;99459.16;1752250;80;21088;-66
2022/07/07 14:50:17;;;;;;;7.83;2.98;;;;;;;20.56;91.95;99461.66;1764831;80;20981;-68
2022/07/07 14:52:44;;;;;;;2.37;1.67;;;;;;;20.60;96.92;99462.60;1765621;81;20986;-65
2022/07/07 14:55:12;;;;;;;2.87;1.75;;;;;;;20.61;89.85;99464.22;1768902;81;21257;-65
2022/07/07 14:57:39;;;;;;;3.22;2.08;;;;;;;20.67;90.07;99462.12;1771351;81;20922;-67
2022/07/07 15:00:08;;;;;;;4.53;1.70;;;;;;;20.72;94.02;99459.22;1761916;80;20936;-68
2022/07/07 15:02:36;;;;;;;2.12;1.65;;;;;;;20.82;92.63;99469.78;1736630;80;20936;-68
2022/07/07 15:05:04;;;;;;;1.77;1.62;;;;;;;20.97;99.79;99458.38;1772576;80;20907;-67
2022/07/07 15:07:32;;;;;;;3.10;1.62;;;;;;;21.10;92.32;99463.39;1745634;80;21249;-65
2022/07/07 15:09:59;;;;;;;4.70;1.60;;;;;;;21.13;85.62;99460.00;1765602;81;20962;-64
2022/07/07 15:12:26;;;;;;;2.47;1.70;;;;;;;21.14;92.51;99460.80;1756089;81;21044;-66
2022/07/07 15:14:55;;;;;;;2.45;1.50;;;;;;;21.15;93.53;99452.30;1733374;81;21059;-66
2022/07/07 15:17:22;;;;;;;3.72;1.60;;;;;;;21.09;87.54;99456.88;1743972;80;20889;-68
2022/07/07 15:19:49;;;;;;;7.07;2.03;;;;;;;20.96;91.96;99463.58;1766328;81;21496;-67
2022/07/07 15:22:16;;;;;;;2.62;1.62;;;;;;;20.86;93.75;99463.93;1758149;80;21598;-67
2022/07/07 15:24:42;;;;;;;2.42;2.22;;;;;;;20.78;90.16;99462.60;1760351;80;20947;-66
2022/07/07 15:27:09;;;;;;;5.03;2.33;;;;;;;20.66;93.10;99462.69;1774023;80;20970;-66
2022/07/07 15:29:36;;;;;;;3.27;2.20;;;;;;;20.57;95.16;99463.82;1756776;80;20871;-67
2022/07/07 15:32:05;;;;;;;2.33;2.05;;;;;;;20.47;95.11;99464.92;1758193;80;21280;-67
2022/07/07 15:34:31;;;;;;;3.67;2.58;;;;;;;20.41;98.22;99465.66;1768866;80;20892;-67
2022/07/07 15:36:58;;;;;;;3.98;2.35;;;;;;;20.33;100.00;99467.80;1769228;80;20993;-68
2022/07/07 15:39:25;;;;;;;3.80;2.62;;;;;;;20.26;100.00;99473.75;1772011;80;20962;-67
2022/07/07 15:41:52;;;;;;;2.45;2.20;;;;;;;20.25;100.00;99472.70;1745310;80;20952;-67
2022/07/07 15:44:19;;;;;;;4.95;2.77;;;;;;;20.22;100.00;99480.16;1753837;80;21168;-67
2022/07/07 15:46:46;;;;;;;3.70;3.17;;;;;;;20.19;100.00;99482.16;1756239;80;20940;-67
2022/07/07 15:49:14;;;;;;;5.62;3.40;;;;;;;20.16;100.00;99481.42;1766695;81;20887;-66
2022/07/07 15:51:41;;;;;;;5.93;3.30;;;;;;;20.11;100.00;99485.09;1762880;80;20844;-68
2022/07/07 15:54:08;;;;;;;4.80;2.95;;;;;;;20.07;100.00;99486.88;1745924;80;21063;-67
2022/07/07 15:56:35;;;;;;;4.40;3.25;;;;;;;20.02;100.00;99485.10;1761739;81;21381;-66
2022/07/07 15:59:02;;;;;;;4.73;3.20;;;;;;;19.97;100.00;99481.17;1756304;81;20974;-69
2022/07/07 16:01:29;;;;;;;8.10;3.72;;;;;;;19.90;100.00;99480.84;1767044;80;20973;-69
2022/07/07 16:06:41;;;;;;;3.77;3.25;;;;;;;19.83;100.00;99486.73;1770686;80;20847;-68
2022/07/07 16:09:09;;;;;;;7.03;3.05;;;;;;;19.81;100.00;99483.52;1766105;80;22110;-65
2022/07/07 16:11:37;;;;;;;10.15;4.33;;;;;;;19.79;100.00;99480.31;1758077;80;21088;-69
2022/07/07 16:14:04;;;;;;;8.93;5.75;;;;;;;19.80;100.00;99482.50;1764605;80;21005;-68
2022/07/07 16:16:32;;;;;;;;;;;;;;;19.80;100.00;99481.14;1772355;81;20911;-66
2022/07/07 16:18:58;;;;;;;7.08;5.20;;;;;;;19.78;100.00;99482.01;1769866;80;20073;-69
2022/07/07 16:21:25;;;;;;;8.08;4.97;;;;;;;19.80;100.00;99480.57;1769146;81;21309;-68
2022/07/07 16:23:52;;;;;;;9.13;5.08;;;;;;;19.82;100.00;99481.59;1767585;80;20855;-66
2022/07/07 16:26:19;;;;;;;7.70;4.70;;;;;;;19.82;100.00;99480.23;1758113;80;21495;-68
2022/07/07 16:28:47;;;;;;;8.05;3.67;;;;;;;19.83;100.00;99479.13;1761082;81;20855;-65
2022/07/07 16:31:13;;;;;;;6.12;3.92;;;;;;;19.81;100.00;99485.45;1760411;80;20932;-67
2022/07/07 16:33:40;;;;;;;7.83;3.60;;;;;;;19.80;100.00;99481.14;1759079;80;21542;-68
2022/07/07 16:36:08;;;;;;;6.08;3.12;;;;;;;19.79;100.00;99479.52;1770998;80;20875;-67
2022/07/07 16:38:36;;;;;;;6.28;3.33;;;;;;;19.78;100.00;99477.36;1771035;81;20919;-65
2022/07/07 16:41:03;;;;;;;3.58;2.70;;;;;;;19.81;100.00;99477.28;1740053;80;20988;-66
2022/07/07 16:43:32;;;;;;;3.35;2.52;;;;;;;19.81;100.00;99473.99;1752390;80;20990;-68
2022/07/07 16:45:59;;;;;;;9.35;3.20;;;;;;;19.83;100.00;99475.84;1755277;80;21276;-67
2022/07/07 16:48:26;;;;;;;4.70;3.02;;;;;;;19.88;100.00;99480.34;1758410;80;21415;-66
2022/07/07 16:50:53;;;;;;;5.45;2.90;;;;;;;20.07;100.00;99481.42;1770913;80;20942;-67
2022/07/07 16:53:20;;;;;;;4.60;2.77;;;;;;;20.22;100.00;99478.80;1761702;80;20895;-67
2022/07/07 16:55:47;;;;;;;;;;;;;;;20.28;100.00;99476.94;1747600;80;20909;-67
2022/07/07 16:58:14;;;;;;;2.45;2.25;;;;;;;20.31;100.00;99478.24;1764932;80;21239;-67
2022/07/07 17:00:41;;;;;;;4.55;2.50;;;;;;;20.31;100.00;99472.23;1766780;80;20978;-68
2022/07/07 17:03:08;;;;;;;3.22;2.72;;;;;;;20.35;100.00;99466.92;1747076;80;20960;-67
2022/07/07 17:05:35;;;;;;;4.47;2.50;;;;;;;20.41;100.00;99466.22;1757162;80;20924;-66
2022/07/07 17:08:01;;;;;;;3.77;2.80;;;;;;;20.44;100.00;99458.75;1759849;80;21145;-68
2022/07/07 17:10:28;;;;;;;4.35;2.37;;;;;;;20.45;100.00;99452.17;1746220;81;21523;-69
2022/07/07 17:12:55;;;;;;;3.12;2.50;;;;;;;20.47;100.00;99459.47;1751290;80;21048;-70
2022/07/07 17:15:23;;;;;;;;;;;;;;;20.44;100.00;99458.19;1752797;81;20926;-68
2022/07/07 17:17:52;;;;;;;2.52;2.20;;;;;;;20.43;100.00;99450.32;1757256;81;20081;-68
2022/07/07 17:20:18;;;;;;;2.00;1.80;;;;;;;20.40;100.00;99450.41;1753971;80;21416;-68
2022/07/07 17:22:45;;;;;;;4.00;2.22;;;;;;;20.35;100.00;99450.00;1741873;81;21204;-68
2022/07/07 17:25:12;;;;;;;3.10;2.40;;;;;;;20.31;100.00;99459.16;1753242;80;20998;-69
2022/07/07 17:27:40;;;;;;;6.97;2.20;;;;;;;20.27;100.00;99455.47;1770574;80;20973;-67
2022/07/07 17:30:10;;;;;;;5.60;2.40;;;;;;;20.22;100.00;99452.34;1759434;80;20927;-65
2022/07/07 17:32:37;;;;;;;6.45;2.45;;;;;;;20.15;100.00;99453.38;1759576;80;21571;-68
2022/07/07 17:35:05;;;;;;;4.30;3.25;;;;;;;20.04;100.00;99446.63;1771336;81;21155;-67
2022/07/07 17:37:33;;;;;;;4.83;3.92;;;;;;;19.96;100.00;99449.58;1768881;81;20946;-69
2022/07/07 17:40:00;;;;;;;7.17;4.62;;;;;;;19.88;100.00;99445.73;1740958;80;21395;-68
2022/07/07 17:42:27;;;;;;;3.37;3.08;;;;;;;19.82;100.00;99451.11;1755133;81;21498;-69
2022/07/07 17:44:54;;;;;;;3.47;3.15;;;;;;;19.75;100.00;99450.77;1765664;80;20847;-67
2022/07/07 17:47:21;;;;;;;9.80;2.90;;;;;;;19.66;100.00;99440.38;1759223;81;21536;-70
2022/07/07 17:49:48;;;;;;;6.83;3.40;;;;;;;19.53;100.00;99440.75;1771279;80;20879;-69
2022/07/07 17:52:15;;;;;;;6.60;2.50;;;;;;;19.38;100.00;99435.75;1751554;80;20927;-68
2022/07/07 17:54:44;;;;;;;3.87;3.02;;;;;;;19.26;100.00;99442.58;1760189;80;20958;-66
2022/07/07 17:57:11;;;;;;;4.97;3.00;;;;;;;19.11;100.00;99440.81;1758986;80;20961;-66
2022/07/07 17:59:38;;;;;;;3.30;3.00;;;;;;;19.11;100.00;99440.81;1758002;80;22003;-67
2022/07/07 18:02:05;;;;;;;4.83;3.17;;;;;;;19.05;100.00;99440.95;1764387;80;21424;-70
2022/07/07 18:04:33;;;;;;;8.73;4.90;;;;;;;19.01;100.00;99444.07;1752595;80;20973;-67
2022/07/07 18:07:00;;;;;;;7.55;4.85;;;;;;;18.93;100.00;99435.86;1752197;80;20926;-69
2022/07/07 18:09:26;;;;;;;12.93;4.97;;;;;;;18.93;100.00;99435.86;1749946;80;20951;-68
2022/07/07 18:11:53;;;;;;;8.38;5.83;;;;;;;18.91;100.00;99440.80;1747710;80;21262;-64
2022/07/07 18:14:21;;;;;;;12.33;8.98;;;;;;;18.84;100.00;99435.27;1769559;80;20966;-70
2022/07/07 18:16:48;;;;;;;12.98;9.90;;;;;;;18.80;100.00;99447.06;1771399;80;20879;-69
2022/07/07 18:19:16;;;;;;;7.83;6.83;;;;;;;18.74;100.00;99437.39;1761519;80;21421;-67
2022/07/07 18:21:42;;;;;;;5.80;4.92;;;;;;;18.67;100.00;99435.13;1754362;80;21144;-68
2022/07/07 18:24:09;;;;;;;3.95;3.08;;;;;;;18.61;100.00;99435.80;1759360;80;21156;-67
2022/07/07 18:26:37;;;;;;;4.12;3.40;;;;;;;18.58;100.00;99436.42;1769714;81;21017;-70
2022/07/07 18:29:05;;;;;;;7.70;4.35;;;;;;;18.57;100.00;99440.27;1760591;80;20981;-68
2022/07/07 18:31:32;;;;;;;9.18;5.53;;;;;;;18.51;100.00;99439.33;1753230;80;20936;-68
2022/07/07 18:33:58;;;;;;;8.78;5.25;;;;;;;18.43;100.00;99438.95;1751218;80;20843;-68
2022/07/07 18:36:25;;;;;;;7.95;6.37;;;;;;;18.36;100.00;99446.73;1771144;81;21243;-68
2022/07/07 18:38:51;;;;;;;7.05;5.72;;;;;;;18.28;100.00;99448.84;1765429;80;21518;-68
2022/07/07 18:41:18;;;;;;;7.03;3.90;;;;;;;18.20;100.00;99449.55;1758450;80;20908;-68
2022/07/07 18:43:45;;;;;;;6.72;6.10;;;;;;;18.11;100.00;99444.06;1735598;80;20924;-67
2022/07/07 18:46:12;;;;;;;9.28;6.17;;;;;;;18.06;100.00;99446.09;1744256;80;21014;-69
2022/07/07 18:48:39;;;;;;;3.65;3.35;;;;;;;18.00;100.00;99443.46;1756960;80;21929;-67
2022/07/07 18:53:51;;;;;;;12.07;9.58;;;;;;;17.99;100.00;99451.94;1766951;80;20965;-68
2022/07/07 18:56:18;;;;;;;22.93;18.62;;;;;;;17.95;100.00;99454.44;1746368;80;20920;-66
2022/07/07 18:58:45;;;;;;;5.95;4.72;;;;;;;17.92;100.00;99450.19;1764381;80;21303;-69
2022/07/07 19:01:12;;;;;;;4.45;3.80;;;;;;;17.91;100.00;99450.75;1765283;80;21254;-68
2022/07/07 19:03:39;;;;;;;4.60;3.87;;;;;;;17.91;100.00;99451.31;1745241;80;20986;-68
2022/07/07 19:06:06;;;;;;;14.23;4.60;;;;;;;17.91;100.00;99456.73;1746636;80;21392;-69